Time;durP1;ratioP1;P1;durP2;ratioP2;P2;SDS_P1;SDS_P2;PMS_P1;PMS_P2;Temp;Humidity;BMP_temperature;BMP_pressure;BME280_temperature;BME280_humidity;BME280_pressure;Samples;Min_cycle;Max_cycle;Signal;HPM_P1;HPM_P2
2022/04/29 00:00:19;;;;;;;11.88;6.57;;;5.90;99.90;;;;;;5056250;28;20057;-64
2022/04/29 00:02:46;;;;;;;10.60;6.50;;;5.90;99.90;;;;;;5073231;28;20193;-64
2022/04/29 00:05:13;;;;;;;11.57;6.68;;;5.90;99.90;;;;;;5074037;28;20061;-64
2022/04/29 00:07:39;;;;;;;12.63;6.82;;;5.90;99.90;;;;;;5072314;28;20057;-64
2022/04/29 00:10:07;;;;;;;12.55;6.38;;;5.90;99.90;;;;;;5073861;28;20052;-64
2022/04/29 00:12:33;;;;;;;17.23;7.82;;;5.80;99.90;;;;;;5073514;28;20102;-64
2022/04/29 00:14:59;;;;;;;8.80;6.50;;;5.80;99.90;;;;;;5072407;28;20060;-65
2022/04/29 00:17:25;;;;;;;18.00;6.78;;;5.80;99.90;;;;;;5073143;28;20056;-64
2022/04/29 00:19:51;;;;;;;11.32;6.65;;;5.80;99.90;;;;;;5073798;28;20384;-64
2022/04/29 00:22:16;;;;;;;13.75;7.45;;;5.80;99.90;;;;;;5073566;28;20485;-64
2022/04/29 00:24:42;;;;;;;11.55;6.80;;;5.80;99.90;;;;;;5072494;28;20119;-64
2022/04/29 00:27:07;;;;;;;14.93;7.30;;;5.80;99.90;;;;;;5073331;28;20056;-64
2022/04/29 00:29:33;;;;;;;15.23;8.30;;;5.70;99.90;;;;;;5071789;28;20467;-64
2022/04/29 00:31:58;;;;;;;11.45;7.72;;;5.70;99.90;;;;;;5072442;28;20052;-65
2022/04/29 00:34:24;;;;;;;14.43;8.32;;;5.70;99.90;;;;;;5073397;28;20064;-65
2022/04/29 00:36:50;;;;;;;13.75;8.10;;;5.70;99.90;;;;;;5073085;28;20071;-65
2022/04/29 00:39:15;;;;;;;15.85;7.88;;;5.70;99.90;;;;;;5071809;28;20421;-64
2022/04/29 00:41:44;;;;;;;12.50;7.82;;;5.60;99.90;;;;;;5073074;28;20056;-64
2022/04/29 00:44:11;;;;;;;13.75;8.05;;;5.60;99.90;;;;;;5073344;28;20076;-64
2022/04/29 00:46:42;;;;;;;12.57;7.85;;;5.60;99.90;;;;;;5071268;28;20418;-64
2022/04/29 00:49:12;;;;;;;11.80;7.47;;;5.50;99.90;;;;;;5073233;28;20052;-64
2022/04/29 00:51:40;;;;;;;13.13;7.55;;;5.50;99.90;;;;;;5072773;28;20052;-64
2022/04/29 00:54:09;;;;;;;16.98;8.45;;;5.50;99.90;;;;;;5072976;28;20052;-64
2022/04/29 00:56:38;;;;;;;11.43;8.07;;;5.50;99.90;;;;;;5071675;28;20049;-64
2022/04/29 00:59:15;;;;;;;13.30;7.80;;;5.50;99.90;;;;;;5073289;28;20330;-64
2022/04/29 01:01:44;;;;;;;16.33;8.93;;;5.40;99.90;;;;;;5072567;28;20131;-65
2022/04/29 01:04:14;;;;;;;15.25;8.23;;;5.40;99.90;;;;;;5073426;28;20044;-64
2022/04/29 01:06:39;;;;;;;13.30;8.38;;;5.40;99.90;;;;;;5072663;28;20459;-64
2022/04/29 01:09:05;;;;;;;13.60;8.35;;;5.30;99.90;;;;;;5071968;28;20048;-64
2022/04/29 01:11:31;;;;;;;14.48;8.65;;;5.30;99.90;;;;;;5072725;28;20056;-64
2022/04/29 01:13:57;;;;;;;12.50;9.02;;;5.20;99.90;;;;;;5072736;28;20075;-64
2022/04/29 01:16:22;;;;;;;13.00;8.00;;;5.20;99.90;;;;;;5071036;28;20512;-63
2022/04/29 01:18:51;;;;;;;10.63;8.57;;;5.10;99.90;;;;;;5071450;28;20060;-64
2022/04/29 01:21:18;;;;;;;17.80;8.35;;;5.10;99.90;;;;;;5072486;28;20095;-64
2022/04/29 01:23:43;;;;;;;12.65;8.55;;;5.10;99.90;;;;;;5072710;28;20052;-63
2022/04/29 01:26:14;;;;;;;12.57;8.13;;;5.00;99.90;;;;;;5072514;28;20048;-64
2022/04/29 01:28:45;;;;;;;15.05;8.55;;;5.00;99.90;;;;;;5072437;28;20503;-63
2022/04/29 01:31:15;;;;;;;14.07;8.50;;;5.00;99.90;;;;;;5072142;28;20139;-64
2022/04/29 01:33:47;;;;;;;14.55;8.07;;;5.00;99.90;;;;;;5072523;28;20155;-64
2022/04/29 01:36:13;;;;;;;14.82;8.73;;;5.00;99.90;;;;;;5072368;28;20052;-63
2022/04/29 01:38:39;;;;;;;15.30;9.77;;;4.90;99.90;;;;;;5072597;28;20060;-64
2022/04/29 01:41:05;;;;;;;16.75;9.27;;;4.90;99.90;;;;;;5072275;28;20500;-64
2022/04/29 01:43:32;;;;;;;13.68;8.50;;;4.90;99.90;;;;;;5072544;28;20053;-64
2022/04/29 01:45:57;;;;;;;14.38;8.95;;;4.90;99.90;;;;;;5071947;28;20496;-63
2022/04/29 01:48:25;;;;;;;16.83;8.57;;;4.90;99.90;;;;;;5072658;28;20058;-63
2022/04/29 01:50:50;;;;;;;14.68;8.27;;;4.90;99.90;;;;;;5071910;28;20503;-64
2022/04/29 01:53:16;;;;;;;12.40;8.07;;;4.90;99.90;;;;;;5070970;28;20052;-63
2022/04/29 01:55:41;;;;;;;16.02;8.35;;;4.90;99.90;;;;;;5070578;28;20080;-64
2022/04/29 01:58:07;;;;;;;13.65;8.68;;;4.80;99.90;;;;;;5071007;28;20087;-64
2022/04/29 02:00:32;;;;;;;17.73;10.13;;;4.80;99.90;;;;;;5070229;28;20083;-64
2022/04/29 02:02:58;;;;;;;16.33;8.95;;;4.80;99.90;;;;;;5053924;28;20056;-64
2022/04/29 02:05:24;;;;;;;12.43;8.07;;;4.80;99.90;;;;;;5071088;28;20408;-63
2022/04/29 02:07:49;;;;;;;18.55;8.20;;;4.70;99.90;;;;;;5070779;28;20501;-63
2022/04/29 02:10:16;;;;;;;15.35;8.10;;;4.70;99.90;;;;;;5071332;28;20057;-63
2022/04/29 02:12:41;;;;;;;14.13;8.50;;;4.70;99.90;;;;;;5071808;28;20106;-64
2022/04/29 02:15:07;;;;;;;13.27;7.70;;;4.70;99.90;;;;;;5070999;28;20422;-63
2022/04/29 02:17:33;;;;;;;14.00;7.43;;;4.70;99.90;;;;;;5070522;28;20572;-64
2022/04/29 02:19:58;;;;;;;13.88;7.55;;;4.70;99.90;;;;;;5070778;28;20094;-64
2022/04/29 02:22:24;;;;;;;14.93;8.57;;;4.70;99.90;;;;;;5071925;28;20514;-64
2022/04/29 02:24:50;;;;;;;13.27;7.65;;;4.70;99.90;;;;;;5072061;28;20056;-64
2022/04/29 02:27:15;;;;;;;12.15;8.13;;;4.70;99.90;;;;;;5071959;28;20048;-64
2022/04/29 02:29:41;;;;;;;15.45;9.32;;;4.70;99.90;;;;;;5072202;28;20138;-64
2022/04/29 02:32:07;;;;;;;20.98;9.48;;;4.60;99.90;;;;;;5070424;28;20048;-64
2022/04/29 02:34:36;;;;;;;16.02;8.60;;;4.70;99.90;;;;;;5075531;28;20110;-64
2022/04/29 02:37:02;;;;;;;14.13;8.77;;;4.70;99.90;;;;;;5075523;28;20083;-64
2022/04/29 02:39:27;;;;;;;15.75;8.90;;;4.70;99.90;;;;;;5075418;28;20088;-63
2022/04/29 02:41:54;;;;;;;14.32;8.68;;;4.70;99.90;;;;;;5075139;28;20148;-63
2022/04/29 02:44:20;;;;;;;18.27;8.38;;;4.70;99.90;;;;;;5075612;28;20095;-64
2022/04/29 02:49:30;;;;;;;13.68;9.07;;;4.70;99.90;;;;;;5073979;28;20056;-64
2022/04/29 02:51:56;;;;;;;13.20;9.18;;;4.60;99.90;;;;;;5075420;28;20049;-64
2022/04/29 02:54:22;;;;;;;17.50;9.48;;;4.60;99.90;;;;;;5075214;28;20136;-63
2022/04/29 02:56:51;;;;;;;14.32;8.98;;;4.60;99.90;;;;;;5074704;28;20493;-64
2022/04/29 02:59:20;;;;;;;15.80;9.27;;;4.60;99.90;;;;;;5075281;28;20098;-63
2022/04/29 03:01:46;;;;;;;13.80;9.45;;;4.60;99.90;;;;;;5074490;28;20052;-64
2022/04/29 03:04:12;;;;;;;14.88;9.02;;;4.60;99.90;;;;;;5075327;28;20055;-65
2022/04/29 03:06:38;;;;;;;14.32;9.20;;;4.60;99.90;;;;;;5074946;28;20075;-64
2022/04/29 03:09:04;;;;;;;15.80;8.85;;;4.60;99.90;;;;;;5074860;28;20151;-64
2022/04/29 03:11:29;;;;;;;14.35;9.75;;;4.60;99.90;;;;;;5073589;28;20134;-64
2022/04/29 03:13:55;;;;;;;14.43;9.05;;;4.60;99.90;;;;;;5073898;28;20059;-64
2022/04/29 03:16:20;;;;;;;17.02;8.70;;;4.60;99.90;;;;;;5074500;28;20052;-64
2022/04/29 03:18:46;;;;;;;16.60;8.90;;;4.60;99.90;;;;;;5074509;28;20052;-63
2022/04/29 03:21:13;;;;;;;16.95;8.75;;;4.50;99.90;;;;;;5074913;28;20067;-64
2022/04/29 03:23:38;;;;;;;14.50;8.63;;;4.50;99.90;;;;;;5073135;28;20100;-64
2022/04/29 03:26:05;;;;;;;12.75;8.20;;;4.60;99.90;;;;;;5056926;28;20083;-65
2022/04/29 03:28:30;;;;;;;13.32;8.73;;;4.60;99.90;;;;;;5073460;28;20051;-64
2022/04/29 03:30:56;;;;;;;13.75;7.82;;;4.50;99.90;;;;;;5072805;28;20487;-64
2022/04/29 03:33:22;;;;;;;14.38;9.02;;;4.50;99.90;;;;;;5072974;28;20064;-64
2022/04/29 03:35:50;;;;;;;16.90;8.38;;;4.50;99.90;;;;;;5074378;28;20140;-64
2022/04/29 03:38:16;;;;;;;11.98;8.00;;;4.50;99.90;;;;;;5074729;28;20499;-64
2022/04/29 03:40:42;;;;;;;14.07;8.68;;;4.50;99.90;;;;;;5072995;28;20219;-64
2022/04/29 03:43:07;;;;;;;12.88;8.52;;;4.40;99.90;;;;;;5074133;28;20054;-64
2022/04/29 03:45:33;;;;;;;16.38;8.73;;;4.50;99.90;;;;;;5073917;28;20400;-64
2022/04/29 03:47:58;;;;;;;14.65;9.02;;;4.40;99.90;;;;;;5073414;28;20083;-64
2022/04/29 03:50:25;;;;;;;17.55;9.18;;;4.40;99.90;;;;;;5074151;28;20154;-64
2022/04/29 03:53:01;;;;;;;19.65;10.07;;;4.30;99.90;;;;;;5074308;28;20142;-64
2022/04/29 03:55:29;;;;;;;16.15;9.10;;;4.30;99.90;;;;;;5073979;28;20084;-64
2022/04/29 03:57:56;;;;;;;19.35;9.70;;;4.30;99.90;;;;;;5074094;28;20052;-64
2022/04/29 04:00:24;;;;;;;19.10;9.25;;;4.30;99.90;;;;;;5074341;28;20060;-63
2022/04/29 04:02:50;;;;;;;15.43;9.77;;;4.20;99.90;;;;;;5073582;28;20078;-64
2022/04/29 04:05:17;;;;;;;21.33;9.75;;;4.30;99.90;;;;;;5074069;28;20132;-64
2022/04/29 04:07:43;;;;;;;15.77;10.27;;;4.20;99.90;;;;;;5073830;28;20052;-64
2022/04/29 04:10:10;;;;;;;18.38;9.75;;;4.20;99.90;;;;;;5072584;28;20048;-64
2022/04/29 04:12:51;;;;;;;18.35;10.38;;;4.20;99.90;;;;;;5073791;28;20052;-64
2022/04/29 04:15:19;;;;;;;17.30;9.15;;;4.20;99.90;;;;;;5072081;28;20137;-64
2022/04/29 04:17:46;;;;;;;17.75;9.48;;;4.20;99.90;;;;;;5072196;28;20475;-64
2022/04/29 04:20:12;;;;;;;16.70;9.50;;;4.20;99.90;;;;;;5073655;28;20106;-63
2022/04/29 04:22:39;;;;;;;16.17;9.32;;;4.30;99.90;;;;;;5073567;28;20052;-64
2022/04/29 04:25:10;;;;;;;16.25;8.52;;;4.30;99.90;;;;;;5074063;28;20052;-64
2022/04/29 04:27:36;;;;;;;14.32;9.15;;;4.30;99.90;;;;;;5073171;28;20056;-65
2022/04/29 04:30:02;;;;;;;19.15;9.25;;;4.30;99.90;;;;;;5071887;28;20130;-63
2022/04/29 04:32:28;;;;;;;17.88;9.48;;;4.40;99.90;;;;;;5073049;28;20053;-64
2022/04/29 04:34:55;;;;;;;18.05;10.20;;;4.40;99.90;;;;;;5073343;28;20155;-64
2022/04/29 04:37:23;;;;;;;15.43;9.50;;;4.50;99.90;;;;;;5073625;28;20059;-64
2022/04/29 04:39:50;;;;;;;20.20;9.73;;;4.60;99.90;;;;;;5073601;28;20044;-64
2022/04/29 04:42:16;;;;;;;17.33;10.05;;;4.60;99.90;;;;;;5073151;28;20059;-64
2022/04/29 04:44:42;;;;;;;17.80;10.20;;;4.60;99.90;;;;;;5073530;28;20057;-64
2022/04/29 04:47:09;;;;;;;17.65;9.18;;;4.70;99.90;;;;;;5071392;28;20052;-64
2022/04/29 04:49:35;;;;;;;16.20;9.30;;;4.80;99.90;;;;;;5071885;28;20060;-64
2022/04/29 04:52:01;;;;;;;13.90;9.15;;;4.80;99.90;;;;;;5072622;28;20052;-64
2022/04/29 04:54:27;;;;;;;16.40;10.00;;;4.90;99.90;;;;;;5072101;28;20453;-64
2022/04/29 04:56:52;;;;;;;13.32;9.50;;;5.00;99.90;;;;;;5072269;28;20128;-65
2022/04/29 04:59:18;;;;;;;16.90;9.73;;;5.10;99.90;;;;;;5072829;28;20053;-64
2022/04/29 05:01:44;;;;;;;20.23;9.50;;;5.30;99.90;;;;;;5070866;28;20044;-64
2022/04/29 05:04:10;;;;;;;18.40;9.52;;;5.30;99.90;;;;;;5055576;28;20393;-64
2022/04/29 05:06:37;;;;;;;18.65;10.13;;;5.40;99.90;;;;;;5072641;28;20045;-64
2022/04/29 05:09:04;;;;;;;18.55;9.68;;;5.50;99.90;;;;;;5055584;28;20036;-63
2022/04/29 05:11:30;;;;;;;17.60;9.73;;;5.60;99.90;;;;;;5055027;28;20036;-64
2022/04/29 05:13:56;;;;;;;14.73;9.00;;;5.80;99.90;;;;;;5071218;28;20052;-64
2022/04/29 05:16:23;;;;;;;20.27;9.60;;;5.90;99.90;;;;;;5071986;28;20040;-64
2022/04/29 05:18:48;;;;;;;13.50;9.35;;;5.90;99.90;;;;;;5072664;28;20063;-64
2022/04/29 05:21:14;;;;;;;17.50;9.13;;;6.00;99.90;;;;;;5072384;28;20056;-64
2022/04/29 05:23:39;;;;;;;13.85;9.38;;;6.20;99.90;;;;;;5071847;28;20113;-63
2022/04/29 05:26:05;;;;;;;20.73;8.95;;;6.30;99.90;;;;;;5071291;28;20227;-63
2022/04/29 05:28:31;;;;;;;12.80;9.13;;;6.40;99.90;;;;;;5071127;28;20052;-64
2022/04/29 05:30:57;;;;;;;17.88;9.98;;;6.60;99.90;;;;;;5070443;28;20056;-64
2022/04/29 05:33:23;;;;;;;14.73;8.52;;;6.70;99.90;;;;;;5072434;28;20049;-65
2022/04/29 05:35:49;;;;;;;18.85;9.48;;;6.80;99.90;;;;;;5070898;28;20079;-64
2022/04/29 05:38:15;;;;;;;23.20;9.02;;;6.90;99.90;;;;;;5071013;28;20378;-64
2022/04/29 05:43:30;;;;;;;12.48;8.38;;;7.10;99.90;;;;;;5062287;28;20052;-64
2022/04/29 05:45:56;;;;;;;12.48;8.20;;;7.30;99.90;;;;;;5071811;28;20115;-65
2022/04/29 05:48:22;;;;;;;12.55;8.13;;;7.50;99.90;;;;;;5072906;28;20202;-64
2022/04/29 05:50:48;;;;;;;16.20;8.18;;;7.80;99.90;;;;;;5070753;28;20045;-64
2022/04/29 05:53:15;;;;;;;14.85;7.70;;;7.80;99.90;;;;;;5072103;28;20037;-64
2022/04/29 05:55:42;;;;;;;14.75;7.80;;;7.80;99.90;;;;;;5054469;28;20033;-64
2022/04/29 05:58:08;;;;;;;10.00;7.35;;;7.80;99.90;;;;;;5072450;28;20163;-65
2022/04/29 06:00:34;;;;;;;13.00;8.23;;;7.80;99.90;;;;;;5070270;28;20076;-64
2022/04/29 06:03:00;;;;;;;14.70;7.25;;;7.80;99.90;;;;;;5072127;28;20519;-64
2022/04/29 06:05:26;;;;;;;14.45;7.78;;;7.90;99.90;;;;;;5070541;28;20053;-64
2022/04/29 06:07:51;;;;;;;13.10;7.45;;;7.90;99.90;;;;;;5075406;28;20051;-65
2022/04/29 06:10:17;;;;;;;11.15;6.95;;;7.90;99.90;;;;;;5075889;28;20094;-64
2022/04/29 06:12:43;;;;;;;14.00;8.25;;;7.90;99.90;;;;;;5076077;28;20052;-64
2022/04/29 06:15:17;;;;;;;18.75;8.00;;;7.90;99.90;;;;;;5074497;28;20125;-64
2022/04/29 06:17:44;;;;;;;13.75;7.38;;;8.00;99.90;;;;;;5057443;28;20045;-64
2022/04/29 06:20:10;;;;;;;12.68;6.88;;;8.00;99.90;;;;;;5057903;28;20076;-64
2022/04/29 06:22:43;;;;;;;12.90;7.82;;;8.00;99.90;;;;;;5075668;28;20052;-64
2022/04/29 06:25:09;;;;;;;9.68;6.65;;;8.10;99.90;;;;;;5074671;28;20376;-65
2022/04/29 06:27:34;;;;;;;9.70;6.32;;;8.10;99.90;;;;;;5075757;28;20056;-65
2022/04/29 06:30:00;;;;;;;10.00;6.80;;;8.10;99.90;;;;;;5075682;28;20136;-64
2022/04/29 06:32:25;;;;;;;12.48;6.65;;;8.20;99.90;;;;;;5073995;28;20063;-64
2022/04/29 06:34:51;;;;;;;11.25;7.20;;;8.20;99.90;;;;;;5075545;28;20127;-64
2022/04/29 06:37:20;;;;;;;10.98;6.45;;;8.30;99.90;;;;;;5074661;28;20083;-64
2022/04/29 06:39:46;;;;;;;8.35;6.60;;;8.30;99.90;;;;;;5075265;28;20488;-64
2022/04/29 06:42:11;;;;;;;11.70;6.13;;;8.40;99.90;;;;;;5075430;28;20052;-65
2022/04/29 06:44:37;;;;;;;10.68;5.80;;;8.50;99.90;;;;;;5075357;28;20049;-65
2022/04/29 06:47:03;;;;;;;8.43;5.68;;;8.60;99.90;;;;;;5073336;28;20102;-64
2022/04/29 06:49:29;;;;;;;10.63;5.43;;;8.70;99.90;;;;;;5075461;28;20099;-64
2022/04/29 06:51:55;;;;;;;10.65;5.70;;;8.80;99.90;;;;;;5075406;28;20048;-65
2022/04/29 06:54:20;;;;;;;9.25;5.10;;;8.90;99.90;;;;;;5074863;28;20071;-64
2022/04/29 06:56:46;;;;;;;12.73;5.75;;;9.00;99.90;;;;;;5075324;28;20047;-64
2022/04/29 06:59:11;;;;;;;7.47;5.30;;;9.10;99.90;;;;;;5075332;28;20048;-65
2022/04/29 07:01:37;;;;;;;8.80;5.30;;;9.20;99.90;;;;;;5074907;28;20139;-64
2022/04/29 07:04:03;;;;;;;10.32;5.82;;;9.20;99.90;;;;;;5074997;28;20083;-64
2022/04/29 07:06:28;;;;;;;13.85;5.72;;;9.30;99.90;;;;;;5074084;28;20045;-65
2022/04/29 07:08:54;;;;;;;9.57;5.25;;;9.30;99.90;;;;;;5074127;28;20056;-65
2022/04/29 07:11:19;;;;;;;8.65;5.65;;;9.30;99.90;;;;;;5075073;28;20052;-65
2022/04/29 07:13:45;;;;;;;12.40;5.60;;;9.30;99.90;;;;;;5073993;28;20059;-65
2022/04/29 07:16:10;;;;;;;17.48;6.32;;;9.30;99.90;;;;;;5074541;28;20083;-64
2022/04/29 07:18:36;;;;;;;8.90;5.50;;;9.20;99.90;;;;;;5073108;28;20578;-65
2022/04/29 07:21:03;;;;;;;9.77;5.50;;;9.20;99.90;;;;;;5074618;28;20051;-64
2022/04/29 07:23:29;;;;;;;6.45;5.40;;;9.20;99.90;;;;;;5075058;28;20154;-64
2022/04/29 07:25:54;;;;;;;7.13;5.38;;;9.30;99.90;;;;;;5074531;28;20064;-64
2022/04/29 07:28:21;;;;;;;8.32;5.57;;;9.40;99.90;;;;;;5073187;28;20053;-64
2022/04/29 07:30:46;;;;;;;13.85;5.80;;;9.50;99.90;;;;;;5073988;28;20064;-65
2022/04/29 07:33:12;;;;;;;11.02;5.43;;;9.60;99.90;;;;;;5073401;28;20506;-65
2022/04/29 07:43:50;;;;;;;8.32;5.60;;;9.60;99.90;;;;;;5074465;28;20056;-64
2022/04/29 07:46:16;;;;;;;6.72;5.65;;;9.70;99.90;;;;;;5072717;28;20093;-64
2022/04/29 07:48:43;;;;;;;7.93;5.47;;;9.80;99.90;;;;;;5074591;28;20067;-65
2022/04/29 07:51:09;;;;;;;7.45;5.32;;;9.90;99.90;;;;;;5056460;28;20048;-65
2022/04/29 07:53:35;;;;;;;6.82;5.25;;;10.00;99.90;;;;;;5072716;28;20477;-64
2022/04/29 07:56:01;;;;;;;7.78;4.88;;;10.20;99.90;;;;;;5072501;28;20048;-64
2022/04/29 07:58:27;;;;;;;5.75;4.43;;;10.50;99.90;;;;;;5073129;28;20052;-65
2022/04/29 08:00:53;;;;;;;7.70;4.25;;;10.70;99.90;;;;;;5073643;28;20037;-65
2022/04/29 08:03:19;;;;;;;6.50;4.15;;;10.80;99.90;;;;;;5074510;28;20049;-64
2022/04/29 08:05:44;;;;;;;5.95;3.90;;;10.60;99.90;;;;;;5073813;28;20506;-64
2022/04/29 08:08:10;;;;;;;11.07;4.40;;;10.70;99.90;;;;;;5072492;28;20052;-64
2022/04/29 08:10:35;;;;;;;6.72;3.63;;;10.70;99.90;;;;;;5072922;28;20048;-65
2022/04/29 08:13:03;;;;;;;12.30;4.32;;;10.90;99.90;;;;;;5072303;28;20056;-64
2022/04/29 08:15:31;;;;;;;7.13;3.80;;;10.90;99.90;;;;;;5073318;28;20052;-64
2022/04/29 08:17:57;;;;;;;7.50;3.50;;;10.90;99.90;;;;;;5072469;28;20092;-65
2022/04/29 08:20:23;;;;;;;5.47;3.60;;;11.00;99.90;;;;;;5072589;28;20053;-65
2022/04/29 08:22:49;;;;;;;4.05;3.35;;;11.20;99.90;;;;;;5073728;28;20060;-65
2022/04/29 08:25:17;;;;;;;7.43;3.75;;;11.40;99.90;;;;;;5072411;28;20326;-65
2022/04/29 08:27:43;;;;;;;4.90;3.53;;;11.40;99.90;;;;;;5055746;28;20103;-65
2022/04/29 08:30:08;;;;;;;6.93;3.58;;;11.60;99.90;;;;;;5071239;28;20056;-65
2022/04/29 08:32:45;;;;;;;7.40;3.70;;;11.60;99.90;;;;;;5071898;28;20055;-64
2022/04/29 08:35:12;;;;;;;7.30;4.13;;;11.80;99.90;;;;;;5073176;28;20448;-65
2022/04/29 08:37:42;;;;;;;7.13;3.50;;;12.00;99.90;;;;;;5073512;28;20052;-65
2022/04/29 08:40:09;;;;;;;5.85;3.72;;;12.10;99.90;;;;;;5073280;28;20408;-65
2022/04/29 08:42:38;;;;;;;5.35;3.88;;;12.40;99.90;;;;;;5073016;28;20057;-65
2022/04/29 08:45:14;;;;;;;8.15;3.83;;;12.60;99.90;;;;;;5071885;28;20048;-66
2022/04/29 08:47:42;;;;;;;6.03;3.47;;;12.60;99.90;;;;;;5072842;28;20053;-65
2022/04/29 08:50:10;;;;;;;5.90;3.22;;;12.60;99.90;;;;;;5073141;28;20062;-65
2022/04/29 08:52:37;;;;;;;9.02;4.35;;;12.60;99.90;;;;;;5073311;28;20056;-65
2022/04/29 09:00:33;;;;;;;4.35;3.55;;;12.60;99.90;;;;;;5072285;28;20045;-64
2022/04/29 09:03:02;;;;;;;5.32;3.47;;;12.40;99.90;;;;;;5072942;28;20052;-65
2022/04/29 09:05:28;;;;;;;6.40;3.53;;;12.20;99.90;;;;;;5072776;28;20558;-65
2022/04/29 09:07:53;;;;;;;4.25;3.42;;;12.30;99.90;;;;;;5073095;28;20151;-65
2022/04/29 09:10:21;;;;;;;5.55;3.40;;;12.20;99.90;;;;;;5072745;28;20098;-64
2022/04/29 09:12:47;;;;;;;5.50;3.30;;;12.20;99.90;;;;;;5055128;28;20060;-65
2022/04/29 09:15:14;;;;;;;7.53;3.80;;;12.00;99.90;;;;;;5072853;28;20049;-65
2022/04/29 09:17:45;;;;;;;6.55;3.58;;;11.90;99.90;;;;;;5072560;28;20060;-64
2022/04/29 09:20:21;;;;;;;6.35;3.17;;;11.90;99.90;;;;;;5071493;28;20105;-65
2022/04/29 09:22:49;;;;;;;4.63;3.10;;;12.10;99.90;;;;;;5072915;28;20132;-65
2022/04/29 09:25:15;;;;;;;4.25;3.03;;;12.30;99.90;;;;;;5072617;28;20131;-64
2022/04/29 09:28:04;;;;;;;5.60;3.10;;;12.40;99.90;;;;;;5072830;28;20100;-65
2022/04/29 09:30:32;;;;;;;7.00;3.10;;;12.50;99.90;;;;;;5072029;28;20101;-64
2022/04/29 09:32:58;;;;;;;5.18;3.28;;;12.70;99.90;;;;;;5072887;28;20056;-65
2022/04/29 09:35:43;;;;;;;4.68;3.00;;;12.70;99.90;;;;;;5072437;28;20519;-65
2022/04/29 09:40:55;;;;;;;7.72;3.30;;;12.90;99.90;;;;;;5072682;28;20084;-64
2022/04/29 09:43:33;;;;;;;5.15;2.83;;;12.90;99.90;;;;;;5074995;28;20098;-64
2022/04/29 09:46:16;;;;;;;3.63;2.70;;;13.20;99.90;;;;;;5074708;28;20059;-65
2022/04/29 09:49:06;;;;;;;4.93;2.88;;;13.50;99.20;;;;;;5075588;28;20064;-65
2022/04/29 09:51:51;;;;;;;6.53;3.50;;;13.50;99.90;;;;;;5075580;28;20053;-65
2022/04/29 09:54:21;;;;;;;5.68;3.15;;;13.90;99.90;;;;;;5075597;28;20060;-65
2022/04/29 09:57:01;;;;;;;4.35;3.25;;;13.90;99.90;;;;;;5076550;28;20087;-65
2022/04/29 09:59:30;;;;;;;5.60;3.22;;;14.00;98.30;;;;;;5075553;28;20095;-65
2022/04/29 10:01:56;;;;;;;3.72;2.80;;;13.90;96.20;;;;;;5076220;28;20056;-65
2022/04/29 10:04:23;;;;;;;4.60;2.90;;;13.70;99.90;;;;;;5075270;28;20091;-65
2022/04/29 10:06:49;;;;;;;4.82;2.80;;;13.60;99.90;;;;;;5076440;28;20461;-65
2022/04/29 10:09:16;;;;;;;6.07;3.22;;;13.60;99.80;;;;;;5075259;28;20129;-65
2022/04/29 10:11:44;;;;;;;4.03;2.95;;;13.60;99.00;;;;;;5075416;28;20453;-65
2022/04/29 10:14:14;;;;;;;3.28;2.60;;;13.70;97.80;;;;;;5074971;28;20048;-65
2022/04/29 10:16:43;;;;;;;4.82;2.55;;;13.70;94.90;;;;;;5074637;28;20227;-65
2022/04/29 10:22:04;;;;;;;4.95;2.40;;;13.50;97.20;;;;;;5074848;28;20105;-66
2022/04/29 10:24:30;;;;;;;7.22;2.85;;;13.40;96.00;;;;;;5076212;28;20049;-64
2022/04/29 10:26:57;;;;;;;3.28;2.67;;;13.30;98.50;;;;;;5076053;28;20048;-65
2022/04/29 10:29:22;;;;;;;4.72;2.55;;;13.20;99.40;;;;;;5076107;28;20060;-65
2022/04/29 10:32:05;;;;;;;5.85;3.22;;;13.10;99.60;;;;;;5074276;28;20059;-65
2022/04/29 10:34:31;;;;;;;4.93;2.60;;;12.90;99.80;;;;;;5075956;28;20063;-66
2022/04/29 10:36:58;;;;;;;6.57;3.10;;;12.80;99.90;;;;;;5076031;28;20049;-65
2022/04/29 10:39:24;;;;;;;3.15;2.47;;;12.70;99.90;;;;;;5074714;28;20087;-65
2022/04/29 10:42:01;;;;;;;4.88;3.00;;;12.80;99.90;;;;;;5074547;28;20088;-65
2022/04/29 10:44:27;;;;;;;4.65;2.60;;;12.70;99.90;;;;;;5075531;28;20063;-65
2022/04/29 10:46:53;;;;;;;7.55;2.92;;;12.80;99.90;;;;;;5057378;28;20064;-65
2022/04/29 10:49:26;;;;;;;5.50;2.78;;;12.80;99.90;;;;;;5074443;28;20040;-65
2022/04/29 10:52:02;;;;;;;6.20;2.47;;;12.80;99.90;;;;;;5075521;28;20055;-65
2022/04/29 10:54:34;;;;;;;5.75;2.88;;;12.80;99.90;;;;;;5074423;28;20048;-65
2022/04/29 10:57:02;;;;;;;4.63;2.85;;;12.80;99.90;;;;;;5057600;28;20102;-65
2022/04/29 10:59:28;;;;;;;3.80;2.70;;;12.90;99.90;;;;;;5075580;28;20064;-66
2022/04/29 11:02:08;;;;;;;9.07;2.67;;;12.90;99.90;;;;;;5074942;28;20052;-65
2022/04/29 11:04:34;;;;;;;7.18;2.95;;;12.90;99.90;;;;;;5074157;28;20052;-65
2022/04/29 11:07:01;;;;;;;4.97;2.60;;;12.70;99.90;;;;;;5074093;28;20124;-65
2022/04/29 11:09:28;;;;;;;6.20;3.03;;;12.70;99.90;;;;;;5075415;28;20145;-65
2022/04/29 11:11:55;;;;;;;6.22;2.97;;;12.80;99.90;;;;;;5057894;28;20116;-65
2022/04/29 11:14:21;;;;;;;3.88;3.03;;;12.80;99.90;;;;;;5075146;28;20049;-65
2022/04/29 11:17:11;;;;;;;3.47;2.95;;;12.90;99.90;;;;;;5074723;28;20476;-65
2022/04/29 11:19:45;;;;;;;4.97;3.15;;;13.10;99.90;;;;;;5073771;28;20489;-65
2022/04/29 11:25:05;;;;;;;5.47;2.90;;;13.10;99.90;;;;;;5073996;28;20052;-65
2022/04/29 11:27:34;;;;;;;5.78;3.28;;;13.10;99.90;;;;;;5073434;28;20059;-65
2022/04/29 11:30:02;;;;;;;5.72;3.10;;;13.20;99.90;;;;;;5074813;28;20102;-65
2022/04/29 11:32:30;;;;;;;7.18;3.28;;;13.20;99.90;;;;;;5074270;28;20054;-64
2022/04/29 11:34:57;;;;;;;4.78;3.58;;;13.30;99.90;;;;;;5074774;28;20048;-64
2022/04/29 11:37:25;;;;;;;8.02;4.00;;;13.30;99.90;;;;;;5074764;28;20044;-65
2022/04/29 11:40:11;;;;;;;4.32;3.10;;;13.40;99.90;;;;;;5073844;28;20055;-65
2022/04/29 11:42:37;;;;;;;5.85;3.42;;;13.50;99.90;;;;;;5072955;28;20090;-65
2022/04/29 11:45:08;;;;;;;5.93;3.92;;;13.50;99.90;;;;;;5074975;28;20072;-65
2022/04/29 11:47:34;;;;;;;5.07;3.33;;;13.50;98.80;;;;;;5072762;28;20345;-65
2022/04/29 11:50:03;;;;;;;4.00;3.60;;;13.40;99.90;;;;;;5074629;28;20049;-65
2022/04/29 11:52:31;;;;;;;6.68;4.28;;;13.30;99.90;;;;;;5074360;28;20052;-65
2022/04/29 11:55:02;;;;;;;6.80;4.07;;;13.30;99.90;;;;;;5072773;28;20064;-65
2022/04/29 11:57:30;;;;;;;6.95;4.10;;;13.20;99.90;;;;;;5072694;28;20045;-65
2022/04/29 11:59:56;;;;;;;4.40;3.78;;;13.20;99.90;;;;;;5072736;28;20055;-65
2022/04/29 12:02:24;;;;;;;4.93;4.30;;;13.10;99.90;;;;;;5073670;28;20048;-65
2022/04/29 12:05:01;;;;;;;6.32;4.30;;;13.10;99.90;;;;;;5074041;28;20045;-65
2022/04/29 12:07:29;;;;;;;5.97;4.40;;;13.20;99.90;;;;;;5073945;28;20089;-65
2022/04/29 12:09:55;;;;;;;6.68;4.45;;;13.30;99.90;;;;;;5074133;28;20052;-65
2022/04/29 12:12:32;;;;;;;8.35;4.88;;;13.40;99.60;;;;;;5073814;28;20036;-65
2022/04/29 12:14:59;;;;;;;8.38;4.88;;;13.40;97.20;;;;;;5072725;28;20135;-65
2022/04/29 12:17:39;;;;;;;6.20;4.72;;;13.40;97.20;;;;;;5072030;28;20152;-65
2022/04/29 12:20:06;;;;;;;6.53;5.00;;;13.50;94.00;;;;;;5073846;28;20049;-66
2022/04/29 12:22:36;;;;;;;6.00;5.13;;;13.40;96.10;;;;;;5072192;28;20048;-65
2022/04/29 12:25:27;;;;;;;8.23;4.72;;;13.30;98.30;;;;;;5073826;28;20048;-65
2022/04/29 12:28:28;;;;;;;6.43;5.03;;;13.40;97.80;;;;;;5072432;28;20049;-64
2022/04/29 12:37:06;;;;;;;11.07;5.50;;;13.40;96.70;;;;;;5073445;28;20135;-65
2022/04/29 12:39:40;;;;;;;8.00;5.07;;;13.40;95.70;;;;;;5072756;28;20432;-64
2022/04/29 12:42:14;;;;;;;7.47;5.10;;;13.50;95.00;;;;;;5072023;28;20048;-66
2022/04/29 12:45:11;;;;;;;5.00;4.60;;;13.60;91.10;;;;;;5073335;28;20123;-65
2022/04/29 12:47:43;;;;;;;6.03;4.90;;;13.30;93.10;;;;;;5071906;28;20074;-65
2022/04/29 12:50:36;;;;;;;5.22;4.68;;;13.30;96.30;;;;;;5073478;28;20182;-65
2022/04/29 12:53:04;;;;;;;10.02;4.93;;;13.30;96.40;;;;;;5071982;28;20049;-65
2022/04/29 12:55:32;;;;;;;8.48;5.07;;;13.40;96.80;;;;;;5073151;28;20060;-64
2022/04/29 12:58:02;;;;;;;6.03;4.55;;;13.30;94.10;;;;;;5073158;28;20065;-65
2022/04/29 13:00:27;;;;;;;7.40;4.53;;;13.30;96.20;;;;;;5073275;28;20131;-64
2022/04/29 13:03:00;;;;;;;8.55;4.70;;;13.30;96.70;;;;;;5072596;28;20119;-64
2022/04/29 13:05:27;;;;;;;5.35;4.82;;;13.40;96.00;;;;;;5073419;28;20052;-65
2022/04/29 13:07:53;;;;;;;6.72;4.28;;;13.40;95.60;;;;;;5072940;28;20040;-65
2022/04/29 13:10:19;;;;;;;6.78;4.95;;;13.30;95.80;;;;;;5072759;28;20044;-65
2022/04/29 13:12:45;;;;;;;5.82;4.50;;;13.30;95.20;;;;;;5071859;28;20131;-65
2022/04/29 13:15:11;;;;;;;6.15;4.40;;;13.50;94.90;;;;;;5071633;28;20052;-65
2022/04/29 13:17:37;;;;;;;5.15;4.22;;;13.60;93.20;;;;;;5072126;28;20124;-65
2022/04/29 13:20:05;;;;;;;5.72;4.30;;;13.60;91.10;;;;;;5072664;28;20048;-64
2022/04/29 13:22:30;;;;;;;6.22;4.78;;;13.70;90.90;;;;;;5072558;28;20094;-65
2022/04/29 13:24:58;;;;;;;4.82;4.32;;;13.80;88.80;;;;;;5071309;28;20473;-66